sensor_id;sensor_type;location;lat;lon;timestamp;temperature;humidity
8400;DHT22;4237;47.030;15.396;2024-03-02T00:00:51;8.70;99.90
8400;DHT22;4237;47.030;15.396;2024-03-02T00:03:20;8.70;99.90
8400;DHT22;4237;47.030;15.396;2024-03-02T00:05:52;8.80;99.90
8400;DHT22;4237;47.030;15.396;2024-03-02T00:08:22;8.60;99.90
8400;DHT22;4237;47.030;15.396;2024-03-02T00:10:56;8.60;99.90
8400;DHT22;4237;47.030;15.396;2024-03-02T00:13:22;8.50;99.90
8400;DHT22;4237;47.030;15.396;2024-03-02T00:15:53;8.50;99.90
8400;DHT22;4237;47.030;15.396;2024-03-02T00:20:57;8.40;99.90
8400;DHT22;4237;47.030;15.396;2024-03-02T00:23:30;8.40;99.90
8400;DHT22;4237;47.030;15.396;2024-03-02T00:25:59;8.30;99.90
8400;DHT22;4237;47.030;15.396;2024-03-02T00:28:35;8.40;99.90
8400;DHT22;4237;47.030;15.396;2024-03-02T00:31:12;8.50;99.90
8400;DHT22;4237;47.030;15.396;2024-03-02T00:33:43;8.50;99.90
8400;DHT22;4237;47.030;15.396;2024-03-02T00:36:24;8.60;99.90
8400;DHT22;4237;47.030;15.396;2024-03-02T00:38:50;8.50;99.90
8400;DHT22;4237;47.030;15.396;2024-03-02T00:41:31;8.40;99.90
8400;DHT22;4237;47.030;15.396;2024-03-02T00:44:07;8.40;99.90
8400;DHT22;4237;47.030;15.396;2024-03-02T00:46:39;8.50;99.90
8400;DHT22;4237;47.030;15.396;2024-03-02T00:49:23;8.40;99.90
8400;DHT22;4237;47.030;15.396;2024-03-02T00:51:52;8.40;99.90
8400;DHT22;4237;47.030;15.396;2024-03-02T00:54:22;8.60;99.90
8400;DHT22;4237;47.030;15.396;2024-03-02T00:56:52;8.50;99.90
8400;DHT22;4237;47.030;15.396;2024-03-02T00:59:23;8.50;99.90
8400;DHT22;4237;47.030;15.396;2024-03-02T01:01:52;8.50;99.90
8400;DHT22;4237;47.030;15.396;2024-03-02T01:04:21;8.50;99.90
8400;DHT22;4237;47.030;15.396;2024-03-02T01:06:50;8.30;99.90
8400;DHT22;4237;47.030;15.396;2024-03-02T01:09:18;8.20;99.90
8400;DHT22;4237;47.030;15.396;2024-03-02T01:11:47;8.20;99.90
8400;DHT22;4237;47.030;15.396;2024-03-02T01:14:16;8.10;99.90
8400;DHT22;4237;47.030;15.396;2024-03-02T01:16:44;8.30;99.90
8400;DHT22;4237;47.030;15.396;2024-03-02T01:19:13;8.20;99.90
8400;DHT22;4237;47.030;15.396;2024-03-02T01:21:42;8.30;99.90
8400;DHT22;4237;47.030;15.396;2024-03-02T01:24:11;8.30;99.90
8400;DHT22;4237;47.030;15.396;2024-03-02T01:26:40;8.30;99.90
8400;DHT22;4237;47.030;15.396;2024-03-02T01:29:09;8.20;99.90
8400;DHT22;4237;47.030;15.396;2024-03-02T01:31:37;8.20;99.90
8400;DHT22;4237;47.030;15.396;2024-03-02T01:34:08;8.20;99.90
8400;DHT22;4237;47.030;15.396;2024-03-02T01:36:37;8.20;99.90
8400;DHT22;4237;47.030;15.396;2024-03-02T01:39:05;8.20;99.90
8400;DHT22;4237;47.030;15.396;2024-03-02T01:41:35;8.20;99.90
8400;DHT22;4237;47.030;15.396;2024-03-02T01:44:04;8.30;99.90
8400;DHT22;4237;47.030;15.396;2024-03-02T01:46:33;8.30;99.90
8400;DHT22;4237;47.030;15.396;2024-03-02T01:49:02;8.30;99.90
8400;DHT22;4237;47.030;15.396;2024-03-02T01:51:32;8.40;99.90
8400;DHT22;4237;47.030;15.396;2024-03-02T01:54:00;8.20;99.90
8400;DHT22;4237;47.030;15.396;2024-03-02T01:56:29;8.20;99.90
8400;DHT22;4237;47.030;15.396;2024-03-02T01:58:58;8.20;99.90
8400;DHT22;4237;47.030;15.396;2024-03-02T02:01:26;7.50;99.90
8400;DHT22;4237;47.030;15.396;2024-03-02T02:03:55;8.20;99.90
8400;DHT22;4237;47.030;15.396;2024-03-02T02:06:23;8.10;99.90
8400;DHT22;4237;47.030;15.396;2024-03-02T02:08:52;8.00;99.90
8400;DHT22;4237;47.030;15.396;2024-03-02T02:11:21;8.00;99.90
8400;DHT22;4237;47.030;15.396;2024-03-02T02:13:49;8.00;99.90
8400;DHT22;4237;47.030;15.396;2024-03-02T02:16:18;8.10;99.90
8400;DHT22;4237;47.030;15.396;2024-03-02T02:18:46;8.10;99.90
8400;DHT22;4237;47.030;15.396;2024-03-02T02:21:15;8.10;99.90
8400;DHT22;4237;47.030;15.396;2024-03-02T02:23:43;8.00;99.90
8400;DHT22;4237;47.030;15.396;2024-03-02T02:26:14;8.10;99.90
8400;DHT22;4237;47.030;15.396;2024-03-02T02:28:42;8.10;99.90
8400;DHT22;4237;47.030;15.396;2024-03-02T02:31:14;8.20;99.90
8400;DHT22;4237;47.030;15.396;2024-03-02T02:33:43;8.10;99.90
8400;DHT22;4237;47.030;15.396;2024-03-02T02:36:12;8.00;99.90
8400;DHT22;4237;47.030;15.396;2024-03-02T02:38:44;8.00;99.90
8400;DHT22;4237;47.030;15.396;2024-03-02T02:41:12;8.00;99.90
8400;DHT22;4237;47.030;15.396;2024-03-02T02:43:40;8.00;99.90
8400;DHT22;4237;47.030;15.396;2024-03-02T02:46:09;8.00;99.90
8400;DHT22;4237;47.030;15.396;2024-03-02T02:48:37;8.00;99.90
8400;DHT22;4237;47.030;15.396;2024-03-02T02:51:06;8.00;99.90
8400;DHT22;4237;47.030;15.396;2024-03-02T02:53:34;8.10;99.90
8400;DHT22;4237;47.030;15.396;2024-03-02T02:56:03;8.10;99.90
8400;DHT22;4237;47.030;15.396;2024-03-02T02:58:32;8.10;99.90
8400;DHT22;4237;47.030;15.396;2024-03-02T03:01:01;8.00;99.90
8400;DHT22;4237;47.030;15.396;2024-03-02T03:03:29;8.20;99.90
8400;DHT22;4237;47.030;15.396;2024-03-02T03:05:58;8.10;99.90
8400;DHT22;4237;47.030;15.396;2024-03-02T03:08:26;8.00;99.90
8400;DHT22;4237;47.030;15.396;2024-03-02T03:10:55;8.10;99.90
8400;DHT22;4237;47.030;15.396;2024-03-02T03:13:24;8.10;99.90
8400;DHT22;4237;47.030;15.396;2024-03-02T03:15:52;8.00;99.90
8400;DHT22;4237;47.030;15.396;2024-03-02T03:18:21;8.00;99.90
8400;DHT22;4237;47.030;15.396;2024-03-02T03:20:50;8.00;99.90
8400;DHT22;4237;47.030;15.396;2024-03-02T03:23:18;7.90;99.90
8400;DHT22;4237;47.030;15.396;2024-03-02T03:25:48;7.90;99.90
8400;DHT22;4237;47.030;15.396;2024-03-02T03:28:16;7.90;99.90
8400;DHT22;4237;47.030;15.396;2024-03-02T03:30:45;7.90;99.90
8400;DHT22;4237;47.030;15.396;2024-03-02T03:33:14;7.90;99.90
8400;DHT22;4237;47.030;15.396;2024-03-02T03:35:42;8.00;99.90
8400;DHT22;4237;47.030;15.396;2024-03-02T03:38:11;8.10;99.90
8400;DHT22;4237;47.030;15.396;2024-03-02T03:40:39;7.90;99.90
8400;DHT22;4237;47.030;15.396;2024-03-02T03:43:08;7.90;99.90
8400;DHT22;4237;47.030;15.396;2024-03-02T03:45:36;7.90;99.90
8400;DHT22;4237;47.030;15.396;2024-03-02T03:48:05;7.80;99.90
8400;DHT22;4237;47.030;15.396;2024-03-02T03:50:34;7.80;99.90
8400;DHT22;4237;47.030;15.396;2024-03-02T03:53:02;7.80;99.90
8400;DHT22;4237;47.030;15.396;2024-03-02T03:55:31;7.80;99.90
8400;DHT22;4237;47.030;15.396;2024-03-02T03:58:00;7.90;99.90
8400;DHT22;4237;47.030;15.396;2024-03-02T04:00:28;7.80;99.90
8400;DHT22;4237;47.030;15.396;2024-03-02T04:02:57;7.90;99.90
8400;DHT22;4237;47.030;15.396;2024-03-02T04:05:25;7.90;99.90
8400;DHT22;4237;47.030;15.396;2024-03-02T04:07:54;7.80;99.90
8400;DHT22;4237;47.030;15.396;2024-03-02T04:10:23;7.90;99.90
8400;DHT22;4237;47.030;15.396;2024-03-02T04:12:52;7.80;99.90
8400;DHT22;4237;47.030;15.396;2024-03-02T04:15:20;7.80;99.90
8400;DHT22;4237;47.030;15.396;2024-03-02T04:17:50;7.80;99.90
8400;DHT22;4237;47.030;15.396;2024-03-02T04:20:19;7.80;99.90
8400;DHT22;4237;47.030;15.396;2024-03-02T04:22:47;7.90;99.90
8400;DHT22;4237;47.030;15.396;2024-03-02T04:25:16;7.80;99.90
8400;DHT22;4237;47.030;15.396;2024-03-02T04:27:44;7.70;99.90
8400;DHT22;4237;47.030;15.396;2024-03-02T04:30:13;7.70;99.90
8400;DHT22;4237;47.030;15.396;2024-03-02T04:32:42;7.80;99.90
8400;DHT22;4237;47.030;15.396;2024-03-02T04:35:13;7.80;99.90
8400;DHT22;4237;47.030;15.396;2024-03-02T04:37:41;7.80;99.90
8400;DHT22;4237;47.030;15.396;2024-03-02T04:40:10;7.70;99.90
8400;DHT22;4237;47.030;15.396;2024-03-02T04:42:39;7.70;99.90
8400;DHT22;4237;47.030;15.396;2024-03-02T04:45:08;7.60;99.90
8400;DHT22;4237;47.030;15.396;2024-03-02T04:47:37;7.60;99.90
8400;DHT22;4237;47.030;15.396;2024-03-02T04:50:06;7.60;99.90
8400;DHT22;4237;47.030;15.396;2024-03-02T04:52:35;7.60;99.90
8400;DHT22;4237;47.030;15.396;2024-03-02T04:55:04;7.60;99.90
8400;DHT22;4237;47.030;15.396;2024-03-02T04:57:39;7.70;99.90
8400;DHT22;4237;47.030;15.396;2024-03-02T05:00:08;7.70;99.90
8400;DHT22;4237;47.030;15.396;2024-03-02T05:02:37;7.60;99.90
8400;DHT22;4237;47.030;15.396;2024-03-02T05:05:06;7.80;99.90
8400;DHT22;4237;47.030;15.396;2024-03-02T05:07:34;7.80;99.90
8400;DHT22;4237;47.030;15.396;2024-03-02T05:10:03;7.60;99.90
8400;DHT22;4237;47.030;15.396;2024-03-02T05:12:32;7.70;99.90
8400;DHT22;4237;47.030;15.396;2024-03-02T05:15:05;7.70;99.90
8400;DHT22;4237;47.030;15.396;2024-03-02T05:17:34;7.70;99.90
8400;DHT22;4237;47.030;15.396;2024-03-02T05:20:04;7.70;99.90
8400;DHT22;4237;47.030;15.396;2024-03-02T05:22:33;7.70;99.90
8400;DHT22;4237;47.030;15.396;2024-03-02T05:25:02;7.60;99.90
8400;DHT22;4237;47.030;15.396;2024-03-02T05:27:31;7.60;99.90
8400;DHT22;4237;47.030;15.396;2024-03-02T05:30:00;7.60;99.90
8400;DHT22;4237;47.030;15.396;2024-03-02T05:32:29;7.60;99.90
8400;DHT22;4237;47.030;15.396;2024-03-02T05:34:57;7.60;99.90
8400;DHT22;4237;47.030;15.396;2024-03-02T05:37:26;7.60;99.90
8400;DHT22;4237;47.030;15.396;2024-03-02T05:39:55;7.60;99.90
8400;DHT22;4237;47.030;15.396;2024-03-02T05:42:23;7.60;99.90
8400;DHT22;4237;47.030;15.396;2024-03-02T05:44:52;7.60;99.90
8400;DHT22;4237;47.030;15.396;2024-03-02T05:47:20;7.60;99.90
8400;DHT22;4237;47.030;15.396;2024-03-02T05:49:49;7.60;99.90
8400;DHT22;4237;47.030;15.396;2024-03-02T05:52:18;7.60;99.90
8400;DHT22;4237;47.030;15.396;2024-03-02T05:54:46;7.60;99.90
8400;DHT22;4237;47.030;15.396;2024-03-02T05:57:16;7.60;99.90
8400;DHT22;4237;47.030;15.396;2024-03-02T05:59:46;7.30;99.90
8400;DHT22;4237;47.030;15.396;2024-03-02T06:02:15;7.70;99.90
8400;DHT22;4237;47.030;15.396;2024-03-02T06:04:43;7.80;99.90
8400;DHT22;4237;47.030;15.396;2024-03-02T06:07:12;7.60;99.90
8400;DHT22;4237;47.030;15.396;2024-03-02T06:09:41;7.70;99.90
8400;DHT22;4237;47.030;15.396;2024-03-02T06:12:10;7.70;99.90
8400;DHT22;4237;47.030;15.396;2024-03-02T06:14:38;7.70;99.90
8400;DHT22;4237;47.030;15.396;2024-03-02T06:17:07;7.70;99.90
8400;DHT22;4237;47.030;15.396;2024-03-02T06:19:35;7.80;99.90
8400;DHT22;4237;47.030;15.396;2024-03-02T06:22:04;7.80;99.90
8400;DHT22;4237;47.030;15.396;2024-03-02T06:24:33;7.80;99.90
8400;DHT22;4237;47.030;15.396;2024-03-02T06:27:01;7.80;99.90
8400;DHT22;4237;47.030;15.396;2024-03-02T06:29:34;7.80;99.90
8400;DHT22;4237;47.030;15.396;2024-03-02T06:32:03;7.90;99.90
8400;DHT22;4237;47.030;15.396;2024-03-02T06:34:32;8.00;99.90
8400;DHT22;4237;47.030;15.396;2024-03-02T06:37:00;8.00;99.90
8400;DHT22;4237;47.030;15.396;2024-03-02T06:39:29;8.00;99.90
8400;DHT22;4237;47.030;15.396;2024-03-02T06:41:58;8.00;99.90
8400;DHT22;4237;47.030;15.396;2024-03-02T06:44:27;8.10;99.90
8400;DHT22;4237;47.030;15.396;2024-03-02T06:46:55;8.20;99.90
8400;DHT22;4237;47.030;15.396;2024-03-02T06:49:24;8.30;99.90
8400;DHT22;4237;47.030;15.396;2024-03-02T06:51:53;8.50;99.90
8400;DHT22;4237;47.030;15.396;2024-03-02T06:54:21;8.60;99.90
8400;DHT22;4237;47.030;15.396;2024-03-02T06:56:50;8.90;99.90
8400;DHT22;4237;47.030;15.396;2024-03-02T06:59:18;9.50;99.90
8400;DHT22;4237;47.030;15.396;2024-03-02T07:01:47;10.00;99.90
8400;DHT22;4237;47.030;15.396;2024-03-02T07:04:15;10.30;99.90
8400;DHT22;4237;47.030;15.396;2024-03-02T07:06:44;10.60;99.90
8400;DHT22;4237;47.030;15.396;2024-03-02T07:09:12;11.30;99.90
8400;DHT22;4237;47.030;15.396;2024-03-02T07:11:41;12.00;99.90
8400;DHT22;4237;47.030;15.396;2024-03-02T07:14:09;12.50;99.90
8400;DHT22;4237;47.030;15.396;2024-03-02T07:16:39;13.00;99.90
8400;DHT22;4237;47.030;15.396;2024-03-02T07:19:08;13.70;99.90
8400;DHT22;4237;47.030;15.396;2024-03-02T07:21:36;13.80;99.90
8400;DHT22;4237;47.030;15.396;2024-03-02T07:24:05;14.10;99.90
8400;DHT22;4237;47.030;15.396;2024-03-02T07:26:35;14.40;99.90
8400;DHT22;4237;47.030;15.396;2024-03-02T07:29:04;15.40;99.90
8400;DHT22;4237;47.030;15.396;2024-03-02T07:31:33;16.00;99.90
8400;DHT22;4237;47.030;15.396;2024-03-02T07:34:03;15.70;99.90
8400;DHT22;4237;47.030;15.396;2024-03-02T07:36:31;16.00;99.90
8400;DHT22;4237;47.030;15.396;2024-03-02T07:39:00;16.50;99.90
8400;DHT22;4237;47.030;15.396;2024-03-02T07:41:28;16.50;99.90
8400;DHT22;4237;47.030;15.396;2024-03-02T07:43:57;16.10;99.90
8400;DHT22;4237;47.030;15.396;2024-03-02T07:46:25;16.20;99.90
8400;DHT22;4237;47.030;15.396;2024-03-02T07:48:54;16.40;99.90
8400;DHT22;4237;47.030;15.396;2024-03-02T07:51:23;16.80;99.90
8400;DHT22;4237;47.030;15.396;2024-03-02T07:53:51;17.30;99.90
8400;DHT22;4237;47.030;15.396;2024-03-02T07:56:20;17.70;99.90
8400;DHT22;4237;47.030;15.396;2024-03-02T07:58:50;18.00;99.90
8400;DHT22;4237;47.030;15.396;2024-03-02T08:01:18;18.00;99.90
8400;DHT22;4237;47.030;15.396;2024-03-02T08:03:47;18.10;99.90
8400;DHT22;4237;47.030;15.396;2024-03-02T08:06:18;18.20;99.90
8400;DHT22;4237;47.030;15.396;2024-03-02T08:08:49;18.10;99.90
8400;DHT22;4237;47.030;15.396;2024-03-02T08:11:17;17.70;99.90
8400;DHT22;4237;47.030;15.396;2024-03-02T08:13:46;17.80;99.90
8400;DHT22;4237;47.030;15.396;2024-03-02T08:16:18;17.60;99.90
8400;DHT22;4237;47.030;15.396;2024-03-02T08:18:49;17.80;99.90
8400;DHT22;4237;47.030;15.396;2024-03-02T08:21:18;18.60;99.90
8400;DHT22;4237;47.030;15.396;2024-03-02T08:23:46;19.40;99.90
8400;DHT22;4237;47.030;15.396;2024-03-02T08:26:15;19.70;99.90
8400;DHT22;4237;47.030;15.396;2024-03-02T08:28:44;21.10;99.90
8400;DHT22;4237;47.030;15.396;2024-03-02T08:31:12;20.80;99.90
8400;DHT22;4237;47.030;15.396;2024-03-02T08:33:41;20.80;99.90
8400;DHT22;4237;47.030;15.396;2024-03-02T08:36:10;20.50;99.90
8400;DHT22;4237;47.030;15.396;2024-03-02T08:38:38;19.20;99.90
8400;DHT22;4237;47.030;15.396;2024-03-02T08:41:07;18.70;99.90
8400;DHT22;4237;47.030;15.396;2024-03-02T08:43:36;18.50;99.90
8400;DHT22;4237;47.030;15.396;2024-03-02T08:46:05;18.80;99.90
8400;DHT22;4237;47.030;15.396;2024-03-02T08:48:34;19.30;99.90
8400;DHT22;4237;47.030;15.396;2024-03-02T08:51:03;18.60;99.90
8400;DHT22;4237;47.030;15.396;2024-03-02T08:53:33;17.60;99.90
8400;DHT22;4237;47.030;15.396;2024-03-02T08:56:02;16.60;99.90
8400;DHT22;4237;47.030;15.396;2024-03-02T08:58:32;16.90;99.90
8400;DHT22;4237;47.030;15.396;2024-03-02T09:01:02;17.20;99.90
8400;DHT22;4237;47.030;15.396;2024-03-02T09:03:30;17.10;99.90
8400;DHT22;4237;47.030;15.396;2024-03-02T09:06:01;16.90;99.90
8400;DHT22;4237;47.030;15.396;2024-03-02T09:08:29;16.80;99.90
8400;DHT22;4237;47.030;15.396;2024-03-02T09:10:59;16.80;99.90
8400;DHT22;4237;47.030;15.396;2024-03-02T09:13:28;17.50;99.90
8400;DHT22;4237;47.030;15.396;2024-03-02T09:15:56;19.30;99.90
8400;DHT22;4237;47.030;15.396;2024-03-02T09:18:25;20.30;99.90
8400;DHT22;4237;47.030;15.396;2024-03-02T09:20:54;19.60;99.90
8400;DHT22;4237;47.030;15.396;2024-03-02T09:23:22;19.40;99.90
8400;DHT22;4237;47.030;15.396;2024-03-02T09:25:51;19.70;99.90
8400;DHT22;4237;47.030;15.396;2024-03-02T09:28:20;19.60;99.90
8400;DHT22;4237;47.030;15.396;2024-03-02T09:30:48;20.20;99.90
8400;DHT22;4237;47.030;15.396;2024-03-02T09:33:17;19.50;99.90
8400;DHT22;4237;47.030;15.396;2024-03-02T09:35:45;19.90;99.90
8400;DHT22;4237;47.030;15.396;2024-03-02T09:38:16;19.80;99.90
8400;DHT22;4237;47.030;15.396;2024-03-02T09:40:44;19.50;99.90
8400;DHT22;4237;47.030;15.396;2024-03-02T09:43:13;19.60;99.90
8400;DHT22;4237;47.030;15.396;2024-03-02T09:45:42;20.50;99.90
8400;DHT22;4237;47.030;15.396;2024-03-02T09:48:10;20.20;99.90
8400;DHT22;4237;47.030;15.396;2024-03-02T09:50:39;20.00;99.90
8400;DHT22;4237;47.030;15.396;2024-03-02T09:53:08;18.10;99.90
8400;DHT22;4237;47.030;15.396;2024-03-02T09:55:38;17.10;99.90
8400;DHT22;4237;47.030;15.396;2024-03-02T09:58:08;16.60;99.90
8400;DHT22;4237;47.030;15.396;2024-03-02T10:00:37;17.00;99.90
8400;DHT22;4237;47.030;15.396;2024-03-02T10:03:05;17.80;99.90
8400;DHT22;4237;47.030;15.396;2024-03-02T10:05:35;17.70;99.90
8400;DHT22;4237;47.030;15.396;2024-03-02T10:08:04;16.70;99.90
8400;DHT22;4237;47.030;15.396;2024-03-02T10:10:38;16.50;99.90
8400;DHT22;4237;47.030;15.396;2024-03-02T10:13:12;18.20;99.90
8400;DHT22;4237;47.030;15.396;2024-03-02T10:15:41;20.10;99.90
8400;DHT22;4237;47.030;15.396;2024-03-02T10:18:11;21.90;99.90
8400;DHT22;4237;47.030;15.396;2024-03-02T10:20:42;21.30;99.90
8400;DHT22;4237;47.030;15.396;2024-03-02T10:23:15;19.90;99.90
8400;DHT22;4237;47.030;15.396;2024-03-02T10:25:45;18.80;99.90
8400;DHT22;4237;47.030;15.396;2024-03-02T10:28:13;19.10;99.90
8400;DHT22;4237;47.030;15.396;2024-03-02T10:30:43;20.50;99.90
8400;DHT22;4237;47.030;15.396;2024-03-02T10:33:13;23.60;99.90
8400;DHT22;4237;47.030;15.396;2024-03-02T10:35:42;24.90;99.90
8400;DHT22;4237;47.030;15.396;2024-03-02T10:38:12;23.80;99.90
8400;DHT22;4237;47.030;15.396;2024-03-02T10:40:41;23.40;99.90
8400;DHT22;4237;47.030;15.396;2024-03-02T10:43:12;23.10;99.90
8400;DHT22;4237;47.030;15.396;2024-03-02T10:45:42;23.90;99.90
8400;DHT22;4237;47.030;15.396;2024-03-02T10:48:10;24.90;99.90
8400;DHT22;4237;47.030;15.396;2024-03-02T10:50:39;23.90;99.90
8400;DHT22;4237;47.030;15.396;2024-03-02T10:53:07;24.80;99.90
8400;DHT22;4237;47.030;15.396;2024-03-02T10:55:36;24.90;99.90
8400;DHT22;4237;47.030;15.396;2024-03-02T10:58:06;24.80;99.90
8400;DHT22;4237;47.030;15.396;2024-03-02T11:00:38;25.20;99.90
8400;DHT22;4237;47.030;15.396;2024-03-02T11:03:08;25.40;99.90
8400;DHT22;4237;47.030;15.396;2024-03-02T11:05:39;24.60;99.90
8400;DHT22;4237;47.030;15.396;2024-03-02T11:08:08;23.20;99.90
8400;DHT22;4237;47.030;15.396;2024-03-02T11:10:48;22.30;99.90
8400;DHT22;4237;47.030;15.396;2024-03-02T11:13:16;21.20;99.90
8400;DHT22;4237;47.030;15.396;2024-03-02T11:15:45;22.00;99.90
8400;DHT22;4237;47.030;15.396;2024-03-02T11:18:14;23.70;99.90
8400;DHT22;4237;47.030;15.396;2024-03-02T11:20:43;24.50;99.90
8400;DHT22;4237;47.030;15.396;2024-03-02T11:23:12;24.50;99.90
8400;DHT22;4237;47.030;15.396;2024-03-02T11:25:41;25.00;99.90
8400;DHT22;4237;47.030;15.396;2024-03-02T11:28:10;25.70;99.90
8400;DHT22;4237;47.030;15.396;2024-03-02T11:33:22;27.20;99.90
8400;DHT22;4237;47.030;15.396;2024-03-02T11:35:48;27.70;99.90
8400;DHT22;4237;47.030;15.396;2024-03-02T11:38:18;26.50;99.90
8400;DHT22;4237;47.030;15.396;2024-03-02T11:40:47;25.20;99.90
8400;DHT22;4237;47.030;15.396;2024-03-02T11:43:15;24.60;99.90
8400;DHT22;4237;47.030;15.396;2024-03-02T11:45:44;24.10;99.90
8400;DHT22;4237;47.030;15.396;2024-03-02T11:48:14;24.70;99.90
8400;DHT22;4237;47.030;15.396;2024-03-02T11:50:49;25.20;99.90
8400;DHT22;4237;47.030;15.396;2024-03-02T11:53:19;25.90;99.90
8400;DHT22;4237;47.030;15.396;2024-03-02T11:55:48;26.10;99.90
8400;DHT22;4237;47.030;15.396;2024-03-02T11:58:17;25.70;99.90
8400;DHT22;4237;47.030;15.396;2024-03-02T12:00:50;24.60;99.90
8400;DHT22;4237;47.030;15.396;2024-03-02T12:03:17;24.90;99.90
8400;DHT22;4237;47.030;15.396;2024-03-02T12:05:50;25.70;99.90
8400;DHT22;4237;47.030;15.396;2024-03-02T12:08:19;26.20;99.90
8400;DHT22;4237;47.030;15.396;2024-03-02T12:10:58;26.20;99.90
8400;DHT22;4237;47.030;15.396;2024-03-02T12:13:28;24.80;99.90
8400;DHT22;4237;47.030;15.396;2024-03-02T12:15:57;22.10;99.90
8400;DHT22;4237;47.030;15.396;2024-03-02T12:18:25;20.80;99.90
8400;DHT22;4237;47.030;15.396;2024-03-02T12:20:54;21.20;99.90
8400;DHT22;4237;47.030;15.396;2024-03-02T12:23:26;23.40;99.90
8400;DHT22;4237;47.030;15.396;2024-03-02T12:25:54;24.90;99.90
8400;DHT22;4237;47.030;15.396;2024-03-02T12:28:24;26.00;99.90
8400;DHT22;4237;47.030;15.396;2024-03-02T12:30:52;25.30;99.90
8400;DHT22;4237;47.030;15.396;2024-03-02T12:33:21;26.30;99.90
8400;DHT22;4237;47.030;15.396;2024-03-02T12:35:50;25.30;99.90
8400;DHT22;4237;47.030;15.396;2024-03-02T12:38:18;26.50;99.90
8400;DHT22;4237;47.030;15.396;2024-03-02T12:40:48;26.80;99.90
8400;DHT22;4237;47.030;15.396;2024-03-02T12:43:17;24.90;99.90
8400;DHT22;4237;47.030;15.396;2024-03-02T12:45:45;22.80;99.90
8400;DHT22;4237;47.030;15.396;2024-03-02T12:48:15;21.30;99.90
8400;DHT22;4237;47.030;15.396;2024-03-02T12:50:43;19.90;99.90
8400;DHT22;4237;47.030;15.396;2024-03-02T12:53:14;18.50;99.90
8400;DHT22;4237;47.030;15.396;2024-03-02T12:55:43;17.70;99.90
8400;DHT22;4237;47.030;15.396;2024-03-02T12:58:22;16.30;99.90
8400;DHT22;4237;47.030;15.396;2024-03-02T13:00:50;15.60;99.90
8400;DHT22;4237;47.030;15.396;2024-03-02T13:03:22;15.70;99.90
8400;DHT22;4237;47.030;15.396;2024-03-02T13:05:51;15.80;99.90
8400;DHT22;4237;47.030;15.396;2024-03-02T13:08:21;15.80;99.90
8400;DHT22;4237;47.030;15.396;2024-03-02T13:10:49;15.70;99.90
8400;DHT22;4237;47.030;15.396;2024-03-02T13:13:18;15.90;99.90
8400;DHT22;4237;47.030;15.396;2024-03-02T13:15:47;15.50;99.90
8400;DHT22;4237;47.030;15.396;2024-03-02T13:18:19;15.80;99.90
8400;DHT22;4237;47.030;15.396;2024-03-02T13:20:48;15.70;99.90
8400;DHT22;4237;47.030;15.396;2024-03-02T13:23:17;15.60;99.90
8400;DHT22;4237;47.030;15.396;2024-03-02T13:25:45;15.50;99.90
8400;DHT22;4237;47.030;15.396;2024-03-02T13:28:14;15.60;99.90
8400;DHT22;4237;47.030;15.396;2024-03-02T13:30:43;15.80;99.90
8400;DHT22;4237;47.030;15.396;2024-03-02T13:33:12;16.00;99.90
8400;DHT22;4237;47.030;15.396;2024-03-02T13:35:40;16.00;99.90
8400;DHT22;4237;47.030;15.396;2024-03-02T13:38:09;15.60;99.90
8400;DHT22;4237;47.030;15.396;2024-03-02T13:40:38;15.70;99.90
8400;DHT22;4237;47.030;15.396;2024-03-02T13:43:06;16.00;99.90
8400;DHT22;4237;47.030;15.396;2024-03-02T13:45:35;15.50;99.90
8400;DHT22;4237;47.030;15.396;2024-03-02T13:48:04;15.00;99.90
8400;DHT22;4237;47.030;15.396;2024-03-02T13:50:33;15.00;99.90
8400;DHT22;4237;47.030;15.396;2024-03-02T13:53:01;15.00;99.90
8400;DHT22;4237;47.030;15.396;2024-03-02T13:55:30;14.80;99.90
8400;DHT22;4237;47.030;15.396;2024-03-02T13:57:59;14.60;99.90
8400;DHT22;4237;47.030;15.396;2024-03-02T14:00:28;14.40;99.90
8400;DHT22;4237;47.030;15.396;2024-03-02T14:02:56;14.50;99.90
8400;DHT22;4237;47.030;15.396;2024-03-02T14:05:25;14.40;99.90
8400;DHT22;4237;47.030;15.396;2024-03-02T14:07:54;14.20;99.90
8400;DHT22;4237;47.030;15.396;2024-03-02T14:10:23;14.30;99.90
8400;DHT22;4237;47.030;15.396;2024-03-02T14:12:51;14.30;99.90
8400;DHT22;4237;47.030;15.396;2024-03-02T14:15:20;14.30;99.90
8400;DHT22;4237;47.030;15.396;2024-03-02T14:17:49;14.10;99.90
8400;DHT22;4237;47.030;15.396;2024-03-02T14:20:17;14.10;99.90
8400;DHT22;4237;47.030;15.396;2024-03-02T14:22:48;14.00;99.90
8400;DHT22;4237;47.030;15.396;2024-03-02T14:25:17;13.90;99.90
8400;DHT22;4237;47.030;15.396;2024-03-02T14:27:47;13.80;99.90
8400;DHT22;4237;47.030;15.396;2024-03-02T14:30:15;13.40;99.90
8400;DHT22;4237;47.030;15.396;2024-03-02T14:32:44;13.30;99.90
8400;DHT22;4237;47.030;15.396;2024-03-02T14:35:12;13.30;99.90
8400;DHT22;4237;47.030;15.396;2024-03-02T14:37:41;13.10;99.90
8400;DHT22;4237;47.030;15.396;2024-03-02T14:40:11;13.00;99.90
8400;DHT22;4237;47.030;15.396;2024-03-02T14:42:40;13.10;99.90
8400;DHT22;4237;47.030;15.396;2024-03-02T14:45:09;13.10;99.90
8400;DHT22;4237;47.030;15.396;2024-03-02T14:47:38;13.20;99.90
8400;DHT22;4237;47.030;15.396;2024-03-02T14:50:06;13.30;99.90
8400;DHT22;4237;47.030;15.396;2024-03-02T14:52:37;13.30;99.90
8400;DHT22;4237;47.030;15.396;2024-03-02T14:55:06;13.20;99.90
8400;DHT22;4237;47.030;15.396;2024-03-02T14:57:35;13.20;99.90
8400;DHT22;4237;47.030;15.396;2024-03-02T15:00:04;13.10;99.90
8400;DHT22;4237;47.030;15.396;2024-03-02T15:02:34;13.20;99.90
8400;DHT22;4237;47.030;15.396;2024-03-02T15:05:03;13.40;99.90
8400;DHT22;4237;47.030;15.396;2024-03-02T15:07:33;13.30;99.90
8400;DHT22;4237;47.030;15.396;2024-03-02T15:10:02;13.20;99.90
8400;DHT22;4237;47.030;15.396;2024-03-02T15:12:31;13.30;99.90
8400;DHT22;4237;47.030;15.396;2024-03-02T15:15:00;13.50;99.90
8400;DHT22;4237;47.030;15.396;2024-03-02T15:17:29;13.60;99.90
8400;DHT22;4237;47.030;15.396;2024-03-02T15:19:57;14.00;99.90
8400;DHT22;4237;47.030;15.396;2024-03-02T15:22:26;14.60;99.90
8400;DHT22;4237;47.030;15.396;2024-03-02T15:24:54;14.90;99.90
8400;DHT22;4237;47.030;15.396;2024-03-02T15:27:23;15.30;99.90
8400;DHT22;4237;47.030;15.396;2024-03-02T15:29:52;15.20;99.90
8400;DHT22;4237;47.030;15.396;2024-03-02T15:32:22;15.00;99.90
8400;DHT22;4237;47.030;15.396;2024-03-02T15:34:53;14.60;99.90
8400;DHT22;4237;47.030;15.396;2024-03-02T15:37:22;14.00;99.90
8400;DHT22;4237;47.030;15.396;2024-03-02T15:39:50;13.80;99.90
8400;DHT22;4237;47.030;15.396;2024-03-02T15:42:19;13.80;99.90
8400;DHT22;4237;47.030;15.396;2024-03-02T15:44:49;14.10;99.90
8400;DHT22;4237;47.030;15.396;2024-03-02T15:47:18;13.40;99.90
8400;DHT22;4237;47.030;15.396;2024-03-02T15:49:46;13.20;99.90
8400;DHT22;4237;47.030;15.396;2024-03-02T15:52:16;13.00;99.90
8400;DHT22;4237;47.030;15.396;2024-03-02T15:54:49;12.70;99.90
8400;DHT22;4237;47.030;15.396;2024-03-02T15:57:17;12.60;99.90
8400;DHT22;4237;47.030;15.396;2024-03-02T15:59:46;12.60;99.90
8400;DHT22;4237;47.030;15.396;2024-03-02T16:02:15;12.50;99.90
8400;DHT22;4237;47.030;15.396;2024-03-02T16:04:44;12.40;99.90
8400;DHT22;4237;47.030;15.396;2024-03-02T16:07:12;12.40;99.90
8400;DHT22;4237;47.030;15.396;2024-03-02T16:09:41;12.20;99.90